createdAt,value
2023-05-10T00:01:47.003Z,2.85
2023-05-10T00:04:15.406Z,4.32
2023-05-10T00:06:43.396Z,2.92
2023-05-10T00:09:11.409Z,4.18
2023-05-10T00:11:39.805Z,4.07
2023-05-10T00:14:09.241Z,4.12
2023-05-10T00:16:38.139Z,4.72
2023-05-10T00:19:06.506Z,3.10
2023-05-10T00:21:34.733Z,2.80
2023-05-10T00:24:02.965Z,4.05
2023-05-10T00:26:31.232Z,3.42
2023-05-10T00:28:59.696Z,3.60
2023-05-10T00:31:29.252Z,4.82
2023-05-10T00:33:59.044Z,3.35
2023-05-10T00:36:27.093Z,2.90
2023-05-10T00:38:55.237Z,4.55
2023-05-10T00:41:23.826Z,3.55
2023-05-10T00:43:51.981Z,4.10
2023-05-10T00:46:20.439Z,3.65
2023-05-10T00:48:50.566Z,3.80
2023-05-10T00:51:19.815Z,4.07
2023-05-10T00:53:48.247Z,3.55
2023-05-10T00:56:17.368Z,6.28
2023-05-10T00:58:45.632Z,2.67
2023-05-10T01:01:14.441Z,4.53
2023-05-10T01:03:42.811Z,3.45
2023-05-10T01:06:12.339Z,3.70
2023-05-10T01:08:41.262Z,5.32
2023-05-10T01:11:09.723Z,3.62
2023-05-10T01:13:40.489Z,4.12
2023-05-10T01:16:09.224Z,3.47
2023-05-10T01:18:41.231Z,4.12
2023-05-10T01:21:21.068Z,4.82
2023-05-10T01:24:21.603Z,5.37
2023-05-10T01:27:12.362Z,6.05
2023-05-10T01:30:15.650Z,4.15
2023-05-10T01:32:55.359Z,5.93
2023-05-10T01:35:31.358Z,4.18
2023-05-10T01:38:09.652Z,2.50
2023-05-10T01:40:44.695Z,4.18
2023-05-10T01:43:20.255Z,4.05
2023-05-10T01:45:55.480Z,4.18
2023-05-10T01:48:28.163Z,4.22
2023-05-10T01:50:58.714Z,3.15
2023-05-10T01:53:29.959Z,4.07
2023-05-10T01:55:59.578Z,5.57
2023-05-10T01:58:31.466Z,4.93
2023-05-10T02:01:02.117Z,3.60
2023-05-10T02:03:34.464Z,4.85
2023-05-10T02:06:04.209Z,4.65
2023-05-10T02:08:33.736Z,3.62
2023-05-10T02:11:03.326Z,3.80
2023-05-10T02:13:34.611Z,3.58
2023-05-10T02:16:05.439Z,3.33
2023-05-10T02:18:37.955Z,5.85
2023-05-10T02:21:07.057Z,3.67
2023-05-10T02:23:36.973Z,3.42
2023-05-10T02:26:06.812Z,4.07
2023-05-10T02:28:35.780Z,4.37
2023-05-10T02:31:04.857Z,4.28
2023-05-10T02:33:36.361Z,6.53
2023-05-10T02:36:06.438Z,5.25
2023-05-10T02:38:35.961Z,5.10
2023-05-10T02:41:06.988Z,5.03
2023-05-10T02:43:35.860Z,4.47
2023-05-10T02:46:04.835Z,4.62
2023-05-10T02:48:35.112Z,5.25
2023-05-10T02:51:09.077Z,4.43
2023-05-10T02:53:40.576Z,4.35
2023-05-10T02:56:16.372Z,4.20
2023-05-10T02:58:44.929Z,3.90
2023-05-10T03:01:13.081Z,3.67
2023-05-10T03:03:42.914Z,5.90
2023-05-10T03:06:11.547Z,4.62
2023-05-10T03:08:39.845Z,3.70
2023-05-10T03:11:25.882Z,5.78
2023-05-10T03:14:06.538Z,4.95
2023-05-10T03:16:44.938Z,4.45
2023-05-10T03:19:19.946Z,4.05
2023-05-10T03:21:53.096Z,3.80
2023-05-10T03:24:30.089Z,5.90
2023-05-10T03:27:03.779Z,3.20
2023-05-10T03:29:34.044Z,5.07
2023-05-10T03:32:02.399Z,3.20
2023-05-10T03:34:33.334Z,4.78
2023-05-10T03:37:01.733Z,6.30
2023-05-10T03:39:31.129Z,5.62
2023-05-10T03:42:01.781Z,6.87
2023-05-10T03:44:35.183Z,4.37
2023-05-10T03:47:03.810Z,5.25
2023-05-10T03:49:33.675Z,4.47
2023-05-10T03:52:02.242Z,3.80
2023-05-10T03:54:30.395Z,2.92
2023-05-10T03:56:59.183Z,3.37
2023-05-10T03:59:27.491Z,3.85
2023-05-10T04:01:55.693Z,4.15
2023-05-10T04:04:24.496Z,4.65
2023-05-10T04:06:57.060Z,4.72
2023-05-10T04:09:25.434Z,3.20
2023-05-10T04:11:53.510Z,3.80
2023-05-10T04:14:21.705Z,4.18
2023-05-10T04:16:50.033Z,3.72
2023-05-10T04:19:18.152Z,3.30
2023-05-10T04:21:46.130Z,2.95
2023-05-10T04:24:15.894Z,3.75
2023-05-10T04:26:43.958Z,3.75
2023-05-10T04:29:11.978Z,4.43
2023-05-10T04:31:40.377Z,7.20
2023-05-10T04:34:08.382Z,4.78
2023-05-10T04:36:37.661Z,4.45
2023-05-10T04:39:06.358Z,4.03
2023-05-10T04:41:35.748Z,3.45
2023-05-10T04:44:03.740Z,3.83
2023-05-10T04:46:32.173Z,3.08
2023-05-10T04:49:00.316Z,4.15
2023-05-10T04:51:28.495Z,8.18
2023-05-10T04:54:05.924Z,5.87
2023-05-10T04:56:36.124Z,4.35
2023-05-10T04:59:04.570Z,5.95
2023-05-10T05:01:32.942Z,5.90
2023-05-10T05:04:01.448Z,5.72
2023-05-10T05:06:29.942Z,3.85
2023-05-10T05:08:58.079Z,3.03
2023-05-10T05:11:26.405Z,5.55
2023-05-10T05:13:56.120Z,2.97
2023-05-10T05:16:24.214Z,4.15
2023-05-10T05:18:52.254Z,3.72
2023-05-10T05:21:22.423Z,5.05
2023-05-10T05:23:50.585Z,4.53
2023-05-10T05:26:21.313Z,4.32
2023-05-10T05:28:49.848Z,3.25
2023-05-10T05:31:20.045Z,3.92
2023-05-10T05:33:48.458Z,4.85
2023-05-10T05:36:16.440Z,4.15
2023-05-10T05:38:44.606Z,3.35
2023-05-10T05:41:13.176Z,4.47
2023-05-10T05:43:41.211Z,3.90
2023-05-10T05:46:09.245Z,4.18
2023-05-10T05:48:39.235Z,2.60
2023-05-10T05:51:07.546Z,3.65
2023-05-10T05:53:35.595Z,5.12
2023-05-10T05:56:04.813Z,3.87
2023-05-10T05:58:33.618Z,2.80
2023-05-10T06:01:01.635Z,3.42
2023-05-10T06:03:30.004Z,3.53
2023-05-10T06:05:59.397Z,3.62
2023-05-10T06:08:27.766Z,3.03
2023-05-10T06:10:56.110Z,2.50
2023-05-10T06:13:24.246Z,3.15
2023-05-10T06:15:52.410Z,3.10
2023-05-10T06:18:20.732Z,2.42
2023-05-10T06:20:48.818Z,2.83
2023-05-10T06:23:18.564Z,3.95
2023-05-10T06:25:46.906Z,3.08
2023-05-10T06:28:14.895Z,1.92
2023-05-10T06:30:43.022Z,2.87
2023-05-10T06:33:11.450Z,2.45
2023-05-10T06:35:39.984Z,2.30
2023-05-10T06:38:08.094Z,2.83
2023-05-10T06:40:38.780Z,3.22
2023-05-10T06:43:06.905Z,3.30
2023-05-10T06:45:34.943Z,3.58
2023-05-10T06:48:03.657Z,4.97
2023-05-10T06:50:31.983Z,2.62
2023-05-10T06:53:00.119Z,3.53
2023-05-10T06:55:28.563Z,3.12
2023-05-10T06:57:58.040Z,3.60
2023-05-10T07:00:26.479Z,2.45
2023-05-10T07:02:54.876Z,2.20
2023-05-10T07:05:23.473Z,4.07
2023-05-10T07:07:51.703Z,2.70
2023-05-10T07:10:20.381Z,2.65
2023-05-10T07:12:48.387Z,2.30
2023-05-10T07:15:19.224Z,3.75
2023-05-10T07:17:47.728Z,3.10
2023-05-10T07:20:15.909Z,4.57
2023-05-10T07:22:44.008Z,2.45
2023-05-10T07:25:12.690Z,1.98
2023-05-10T07:27:40.794Z,3.78
2023-05-10T07:30:10.238Z,2.08
2023-05-10T07:32:40.552Z,2.55
2023-05-10T07:35:09.439Z,3.15
2023-05-10T07:37:37.431Z,2.62
2023-05-10T07:40:06.644Z,2.35
2023-05-10T07:42:34.804Z,2.50
2023-05-10T07:45:03.004Z,2.40
2023-05-10T07:47:31.700Z,3.72
2023-05-10T07:50:01.165Z,3.65
2023-05-10T07:52:29.118Z,3.12
2023-05-10T07:54:57.930Z,3.20
2023-05-10T07:57:25.962Z,2.55
2023-05-10T07:59:53.966Z,2.42
2023-05-10T08:02:22.158Z,3.90
2023-05-10T08:04:50.492Z,3.50
2023-05-10T08:07:19.860Z,5.95
2023-05-10T08:09:47.932Z,5.43
2023-05-10T08:12:16.131Z,2.92
2023-05-10T08:14:45.016Z,2.12
2023-05-10T08:17:13.053Z,3.90
2023-05-10T08:19:41.295Z,2.55
2023-05-10T08:22:09.434Z,2.00
2023-05-10T08:24:39.482Z,3.47
2023-05-10T08:27:10.367Z,12.68
2023-05-10T08:29:49.368Z,5.82
2023-05-10T08:32:18.112Z,2.17
2023-05-10T08:34:46.218Z,3.25
2023-05-10T08:37:14.572Z,2.10
2023-05-10T08:39:44.332Z,3.37
2023-05-10T08:42:13.815Z,2.28
2023-05-10T08:44:42.435Z,2.78
2023-05-10T08:47:12.313Z,4.03
2023-05-10T08:49:41.432Z,8.02
2023-05-10T08:52:10.154Z,7.62
2023-05-10T08:54:38.714Z,3.50
2023-05-10T08:57:08.590Z,2.65
2023-05-10T08:59:37.007Z,2.42
2023-05-10T09:02:06.853Z,2.70
2023-05-10T09:04:35.074Z,2.53
2023-05-10T09:07:03.291Z,3.40
2023-05-10T09:09:33.301Z,3.53
2023-05-10T09:12:01.792Z,3.33
2023-05-10T09:14:31.400Z,3.00
2023-05-10T09:16:59.849Z,3.55
2023-05-10T09:19:28.059Z,2.62
2023-05-10T09:21:56.151Z,2.50
2023-05-10T09:24:28.007Z,5.75
2023-05-10T09:26:58.764Z,3.30
2023-05-10T09:29:27.244Z,2.72
2023-05-10T09:31:56.654Z,2.75
2023-05-10T09:34:35.800Z,3.80
2023-05-10T09:37:05.359Z,3.60
2023-05-10T09:39:34.699Z,2.53
2023-05-10T09:42:05.818Z,2.92
2023-05-10T09:44:36.645Z,4.03
2023-05-10T09:47:06.384Z,11.30
2023-05-10T09:49:34.995Z,4.25
2023-05-10T09:52:04.801Z,4.90
2023-05-10T09:54:33.715Z,5.85
2023-05-10T09:57:02.203Z,3.00
2023-05-10T09:59:31.367Z,2.87
2023-05-10T10:02:01.958Z,3.70
2023-05-10T10:04:34.144Z,5.97
2023-05-10T10:07:04.725Z,2.87
2023-05-10T10:09:33.560Z,3.20
2023-05-10T10:12:02.032Z,3.30
2023-05-10T10:14:31.113Z,3.87
2023-05-10T10:19:36.240Z,3.80
2023-05-10T10:22:05.201Z,3.83
2023-05-10T10:24:33.747Z,5.50
2023-05-10T10:27:11.344Z,6.28
2023-05-10T10:29:47.000Z,3.28
2023-05-10T10:32:27.915Z,6.18
2023-05-10T10:34:58.182Z,4.62
2023-05-10T10:37:45.030Z,6.05
2023-05-10T10:40:28.853Z,3.25
2023-05-10T10:42:57.974Z,4.20
2023-05-10T10:45:27.428Z,4.93
2023-05-10T10:48:23.589Z,3.90
2023-05-10T10:50:59.800Z,4.05
2023-05-10T10:53:29.233Z,3.87
2023-05-10T10:56:09.055Z,4.37
2023-05-10T10:58:38.059Z,4.28
2023-05-10T11:01:16.382Z,4.53
2023-05-10T11:04:12.508Z,4.55
2023-05-10T11:06:43.473Z,4.80
2023-05-10T11:09:13.465Z,5.00
2023-05-10T11:11:51.446Z,5.18
2023-05-10T11:14:23.722Z,3.85
2023-05-10T11:16:52.425Z,4.85
2023-05-10T11:19:21.258Z,4.60
2023-05-10T11:21:52.667Z,5.25
2023-05-10T11:24:24.515Z,3.10
2023-05-10T11:26:53.189Z,4.28
2023-05-10T11:29:21.540Z,4.10
2023-05-10T11:31:51.449Z,4.18
2023-05-10T11:34:27.176Z,4.65
2023-05-10T11:36:57.603Z,5.50
2023-05-10T11:39:28.569Z,7.37
2023-05-10T11:41:57.062Z,3.85
2023-05-10T11:44:26.054Z,4.18
2023-05-10T11:46:54.127Z,4.40
2023-05-10T11:49:26.212Z,4.40
2023-05-10T11:51:54.217Z,5.55
2023-05-10T11:54:23.899Z,4.78
2023-05-10T11:56:52.167Z,3.95
2023-05-10T11:59:20.231Z,4.32
2023-05-10T12:01:48.593Z,5.15
2023-05-10T12:04:17.444Z,5.00
2023-05-10T12:06:47.521Z,7.03
2023-05-10T12:11:48.698Z,5.82
2023-05-10T12:14:17.512Z,4.82
2023-05-10T12:16:46.019Z,5.03
2023-05-10T12:19:14.178Z,5.72
2023-05-10T12:21:42.477Z,4.40
2023-05-10T12:24:11.471Z,5.15
2023-05-10T12:26:39.599Z,4.68
2023-05-10T12:29:16.720Z,4.35
2023-05-10T12:31:55.488Z,4.93
2023-05-10T12:34:33.846Z,4.15
2023-05-10T12:37:03.709Z,4.40
2023-05-10T12:39:41.123Z,4.22
2023-05-10T12:42:09.514Z,4.60
2023-05-10T12:44:39.027Z,5.35
2023-05-10T12:47:07.290Z,4.32
2023-05-10T12:49:35.993Z,3.28
2023-05-10T12:52:04.547Z,6.07
2023-05-10T12:54:32.586Z,4.22
2023-05-10T12:57:00.967Z,4.20
2023-05-10T12:59:29.012Z,3.70
2023-05-10T13:01:59.285Z,4.30
2023-05-10T13:04:27.675Z,4.93
2023-05-10T13:06:57.080Z,4.40
2023-05-10T13:09:26.047Z,5.72
2023-05-10T13:11:55.225Z,3.85
2023-05-10T13:14:23.476Z,4.37
2023-05-10T13:16:51.610Z,3.92
2023-05-10T13:19:24.094Z,5.32
2023-05-10T13:21:52.407Z,6.43
2023-05-10T13:24:20.844Z,6.10
2023-05-10T13:26:49.488Z,4.47
2023-05-10T13:29:19.110Z,4.55
2023-05-10T13:31:47.849Z,4.72
2023-05-10T13:34:15.908Z,4.03
2023-05-10T13:36:46.065Z,5.57
2023-05-10T13:39:14.355Z,5.00
2023-05-10T13:41:42.591Z,4.45
2023-05-10T13:44:10.669Z,4.72
2023-05-10T13:46:39.569Z,4.28
2023-05-10T13:49:08.148Z,5.15
2023-05-10T13:51:37.128Z,5.97
2023-05-10T13:54:07.084Z,6.32
2023-05-10T13:56:35.671Z,4.35
2023-05-10T13:59:03.654Z,4.50
2023-05-10T14:01:32.408Z,3.35
2023-05-10T14:04:01.021Z,3.80
2023-05-10T14:06:29.245Z,3.17
2023-05-10T14:08:57.457Z,5.50
2023-05-10T14:11:27.124Z,3.17
2023-05-10T14:13:55.382Z,3.15
2023-05-10T14:16:23.602Z,2.72
2023-05-10T14:18:52.006Z,2.92
2023-05-10T14:21:20.047Z,1.10
2023-05-10T14:23:48.062Z,1.12
2023-05-10T14:26:16.259Z,1.98
2023-05-10T14:28:45.699Z,0.70
2023-05-10T14:31:15.181Z,0.55
2023-05-10T14:33:43.899Z,1.15
2023-05-10T14:36:12.169Z,0.22
2023-05-10T14:38:41.354Z,1.30
2023-05-10T14:41:11.821Z,0.45
2023-05-10T14:43:40.005Z,0.35
2023-05-10T14:46:19.473Z,0.90
2023-05-10T14:48:48.813Z,0.40
2023-05-10T14:51:16.827Z,0.70
2023-05-10T14:53:45.862Z,1.55
2023-05-10T14:56:15.440Z,3.30
2023-05-10T14:58:43.799Z,0.68
2023-05-10T15:01:13.867Z,0.80
2023-05-10T15:03:49.955Z,0.90
2023-05-10T15:06:32.931Z,1.37
2023-05-10T15:09:03.950Z,0.82
2023-05-10T15:11:33.137Z,0.93
2023-05-10T15:14:03.774Z,1.95
2023-05-10T15:16:35.847Z,0.73
2023-05-10T15:19:05.098Z,0.50
2023-05-10T15:21:42.332Z,1.60
2023-05-10T15:24:11.864Z,0.73
2023-05-10T15:26:41.437Z,2.70
2023-05-10T15:29:09.594Z,1.20
2023-05-10T15:31:40.634Z,0.90
2023-05-10T15:34:08.716Z,0.75
2023-05-10T15:36:36.817Z,1.30
2023-05-10T15:39:05.390Z,1.00
2023-05-10T15:41:33.888Z,1.17
2023-05-10T15:44:06.594Z,2.12
2023-05-10T15:46:35.283Z,0.88
2023-05-10T15:49:04.602Z,0.88
2023-05-10T15:54:07.247Z,1.20
2023-05-10T15:56:36.702Z,1.20
2023-05-10T15:59:06.088Z,2.65
2023-05-10T16:01:34.276Z,1.52
2023-05-10T16:04:06.525Z,1.00
2023-05-10T16:06:34.570Z,2.35
2023-05-10T16:09:03.067Z,3.08
2023-05-10T16:11:31.175Z,1.33
2023-05-10T16:13:59.317Z,3.03
2023-05-10T16:16:28.033Z,1.15
2023-05-10T16:18:56.097Z,1.15
2023-05-10T16:21:25.645Z,1.15
2023-05-10T16:23:54.026Z,1.30
2023-05-10T16:26:22.543Z,1.77
2023-05-10T16:28:50.683Z,1.52
2023-05-10T16:31:20.187Z,1.60
2023-05-10T16:33:48.304Z,2.12
2023-05-10T16:36:16.679Z,1.50
2023-05-10T16:38:46.274Z,1.20
2023-05-10T16:41:14.292Z,1.00
2023-05-10T16:43:42.330Z,2.03
2023-05-10T16:46:14.240Z,0.50
2023-05-10T16:48:42.523Z,0.70
2023-05-10T16:51:10.958Z,1.15
2023-05-10T16:53:39.098Z,0.50
2023-05-10T16:56:08.677Z,0.50
2023-05-10T16:58:37.651Z,0.88
2023-05-10T17:01:05.853Z,0.85
2023-05-10T17:03:34.262Z,0.47
2023-05-10T17:06:02.826Z,3.22
2023-05-10T17:08:30.981Z,4.60
2023-05-10T17:11:02.752Z,0.50
2023-05-10T17:13:32.905Z,2.08
2023-05-10T17:16:03.623Z,0.65
2023-05-10T17:18:32.251Z,1.12
2023-05-10T17:21:00.405Z,0.50
2023-05-10T17:23:29.158Z,0.22
2023-05-10T17:25:59.031Z,1.30
2023-05-10T17:28:28.987Z,0.82
2023-05-10T17:30:59.368Z,0.50
2023-05-10T17:33:27.803Z,0.30
2023-05-10T17:35:56.915Z,0.22
2023-05-10T17:38:27.640Z,0.30
2023-05-10T17:40:55.539Z,0.30
2023-05-10T17:43:26.391Z,0.30
2023-05-10T17:45:55.323Z,0.60
2023-05-10T17:48:27.665Z,0.80
2023-05-10T17:50:56.557Z,2.40
2023-05-10T17:53:25.432Z,0.65
2023-05-10T17:55:57.995Z,0.52
2023-05-10T17:58:26.634Z,0.88
2023-05-10T18:00:57.473Z,2.83
2023-05-10T18:03:27.364Z,1.00
2023-05-10T18:05:57.058Z,1.00
2023-05-10T18:08:27.532Z,0.52
2023-05-10T18:10:55.771Z,0.60
2023-05-10T18:13:24.370Z,0.73
2023-05-10T18:15:53.788Z,0.40
2023-05-10T18:18:22.219Z,0.93
2023-05-10T18:20:56.490Z,1.20
2023-05-10T18:23:25.600Z,0.62
2023-05-10T18:25:54.134Z,0.95
2023-05-10T18:28:22.202Z,0.60
2023-05-10T18:30:51.153Z,0.60
2023-05-10T18:33:19.193Z,0.50
2023-05-10T18:35:47.443Z,0.82
2023-05-10T18:38:17.198Z,2.47
2023-05-10T18:40:45.279Z,0.40
2023-05-10T18:43:15.222Z,0.57
2023-05-10T18:45:44.002Z,1.15
2023-05-10T18:48:12.276Z,0.80
2023-05-10T18:50:40.595Z,1.55
2023-05-10T18:53:09.064Z,0.82
2023-05-10T18:55:38.661Z,0.90
2023-05-10T18:58:06.744Z,1.05
2023-05-10T19:00:35.038Z,0.93
2023-05-10T19:03:03.081Z,1.20
2023-05-10T19:05:31.644Z,0.98
2023-05-10T19:08:00.011Z,1.77
2023-05-10T19:10:28.448Z,4.22
2023-05-10T19:12:59.989Z,3.58
2023-05-10T19:15:28.585Z,2.95
2023-05-10T19:17:56.819Z,3.80
2023-05-10T19:20:25.476Z,1.70
2023-05-10T19:23:08.313Z,1.73
2023-05-10T19:25:39.426Z,1.17
2023-05-10T19:28:09.149Z,1.05
2023-05-10T19:30:37.846Z,1.20
2023-05-10T19:33:06.013Z,1.20
2023-05-10T19:35:34.485Z,2.75
2023-05-10T19:38:02.593Z,2.55
2023-05-10T19:40:30.741Z,1.15
2023-05-10T19:43:00.419Z,2.05
2023-05-10T19:45:30.223Z,1.20
2023-05-10T19:47:58.733Z,1.23
2023-05-10T19:50:26.959Z,1.25
2023-05-10T19:52:58.063Z,2.10
2023-05-10T19:55:28.406Z,1.42
2023-05-10T19:57:56.659Z,1.30
2023-05-10T20:00:25.828Z,0.90
2023-05-10T20:02:56.236Z,1.33
2023-05-10T20:05:24.756Z,1.80
2023-05-10T20:07:53.014Z,1.77
2023-05-10T20:10:23.893Z,3.80
2023-05-10T20:12:54.306Z,1.55
2023-05-10T20:15:24.329Z,1.40
2023-05-10T20:17:53.177Z,1.30
2023-05-10T20:20:23.656Z,1.20
2023-05-10T20:22:52.157Z,2.25
2023-05-10T20:25:20.429Z,2.05
2023-05-10T20:27:50.781Z,2.12
2023-05-10T20:30:19.631Z,3.28
2023-05-10T20:32:48.349Z,1.40
2023-05-10T20:35:16.503Z,4.37
2023-05-10T20:37:48.380Z,1.55
2023-05-10T20:40:16.819Z,2.83
2023-05-10T20:42:45.865Z,2.25
2023-05-10T20:45:14.217Z,2.83
2023-05-10T20:47:42.536Z,2.15
2023-05-10T20:50:11.716Z,1.52
2023-05-10T20:52:39.845Z,1.73
2023-05-10T20:55:10.417Z,4.70
2023-05-10T20:57:38.761Z,1.62
2023-05-10T21:00:09.457Z,1.62
2023-05-10T21:02:37.538Z,1.30
2023-05-10T21:05:06.896Z,1.17
2023-05-10T21:07:36.956Z,1.48
2023-05-10T21:10:06.066Z,6.35
2023-05-10T21:12:35.573Z,2.10
2023-05-10T21:15:04.163Z,1.90
2023-05-10T21:17:32.826Z,4.03
2023-05-10T21:20:00.926Z,2.28
2023-05-10T21:22:29.068Z,2.10
2023-05-10T21:24:57.279Z,3.17
2023-05-10T21:27:25.332Z,3.10
2023-05-10T21:29:54.791Z,5.07
2023-05-10T21:32:23.208Z,3.22
2023-05-10T21:34:51.202Z,1.95
2023-05-10T21:37:20.794Z,2.87
2023-05-10T21:39:49.096Z,2.53
2023-05-10T21:42:17.267Z,2.70
2023-05-10T21:44:45.681Z,3.17
2023-05-10T21:47:15.400Z,2.25
2023-05-10T21:49:43.795Z,5.80
2023-05-10T21:52:11.870Z,2.25
2023-05-10T21:54:40.340Z,4.72
2023-05-10T21:57:08.420Z,4.37
2023-05-10T21:59:36.707Z,2.58
2023-05-10T22:02:05.020Z,3.00
2023-05-10T22:04:34.811Z,5.53
2023-05-10T22:07:02.812Z,3.58
2023-05-10T22:09:31.129Z,3.53
2023-05-10T22:11:59.322Z,6.80
2023-05-10T22:14:27.268Z,4.60
2023-05-10T22:16:55.631Z,3.62
2023-05-10T22:19:23.878Z,4.40
2023-05-10T22:21:53.364Z,3.45
2023-05-10T22:24:21.450Z,6.35
2023-05-10T22:26:49.844Z,3.50
2023-05-10T22:29:17.909Z,6.57
2023-05-10T22:31:46.224Z,3.45
2023-05-10T22:34:14.661Z,3.80
2023-05-10T22:36:42.750Z,4.35
2023-05-10T22:39:12.255Z,3.85
2023-05-10T22:41:40.569Z,4.85
2023-05-10T22:44:08.717Z,5.30
2023-05-10T22:46:37.440Z,6.35
2023-05-10T22:49:06.293Z,12.75
2023-05-10T22:51:34.378Z,4.15
2023-05-10T22:54:02.506Z,4.45
2023-05-10T22:56:32.291Z,4.95
2023-05-10T22:59:00.782Z,3.95
2023-05-10T23:01:29.586Z,4.85
2023-05-10T23:03:57.977Z,4.15
2023-05-10T23:06:27.872Z,4.30
2023-05-10T23:08:56.061Z,4.28
2023-05-10T23:11:24.484Z,4.75
2023-05-10T23:13:53.963Z,5.72
2023-05-10T23:16:22.491Z,5.12
2023-05-10T23:18:50.966Z,4.82
2023-05-10T23:21:19.030Z,4.47
2023-05-10T23:23:47.028Z,6.15
2023-05-10T23:26:15.329Z,3.90
2023-05-10T23:28:43.350Z,7.53
2023-05-10T23:31:12.810Z,4.10
2023-05-10T23:33:41.201Z,5.30
2023-05-10T23:36:09.480Z,4.93
2023-05-10T23:38:39.344Z,5.37
2023-05-10T23:41:07.631Z,4.70
2023-05-10T23:43:35.689Z,3.70
2023-05-10T23:46:05.302Z,4.40
2023-05-10T23:48:35.011Z,3.92
2023-05-10T23:51:03.639Z,4.40
2023-05-10T23:53:31.677Z,7.60
2023-05-10T23:55:59.945Z,4.10
2023-05-10T23:58:28.068Z,6.35
